Time;durP1;ratioP1;P1;durP2;ratioP2;P2;SDS_P1;SDS_P2;PMS_P1;PMS_P2;Temp;Humidity;BMP_temperature;BMP_pressure;BME280_temperature;BME280_humidity;BME280_pressure;Samples;Min_cycle;Max_cycle;Signal;HPM_P1;HPM_P2
2022/08/10 00:00:20;;;;;;;;;;;;;;;21.34;53.92;101001.38;1742349;81;20460;-71
2022/08/10 00:02:59;;;;;;;;;;;;;;;21.32;54.08;101006.31;1755597;81;21224;-73
2022/08/10 00:05:36;;;;;;;;;;;;;;;21.34;54.17;101003.30;1751961;81;20178;-72
2022/08/10 00:08:04;;;;;;;;;;;;;;;21.33;54.24;101005.78;1735224;81;20194;-72
2022/08/10 00:10:38;;;;;;;;;;;;;;;21.32;54.15;100998.16;1740262;81;20174;-72
2022/08/10 00:13:12;;;;;;;;;;;;;;;21.30;54.08;100999.86;1744719;81;20205;-72
2022/08/10 00:15:51;;;;;;;;;;;;;;;21.28;53.94;100999.36;1723791;81;20196;-72
2022/08/10 00:18:18;;;;;;;;;;;;;;;21.26;53.81;101002.97;1728050;81;20527;-73
2022/08/10 00:20:44;;;;;;;;;;;;;;;21.26;53.64;101000.82;1754181;81;20203;-73
2022/08/10 00:23:10;;;;;;;;;;;;;;;21.23;53.53;100996.81;1752364;81;20180;-73
2022/08/10 00:25:37;;;;;;;;;;;;;;;21.20;53.61;100989.86;1757661;81;20182;-73
2022/08/10 00:28:03;;;;;;;;;;;;;;;21.20;53.77;100996.66;1743861;81;21130;-73
2022/08/10 00:30:29;;;;;;;;;;;;;;;21.21;53.67;100990.89;1748941;81;20322;-72
2022/08/10 00:32:56;;;;;;;;;;;;;;;21.23;53.74;100991.95;1746946;81;20483;-73
2022/08/10 00:35:22;;;;;;;;;;;;;;;21.25;53.62;100991.05;1734351;81;20211;-73
2022/08/10 00:37:48;;;;;;;;;;;;;;;21.24;53.53;100984.83;1753968;81;20177;-73
2022/08/10 00:40:15;;;;;;;;;;;;;;;21.21;53.48;100982.73;1756603;81;21198;-73
2022/08/10 00:42:42;;;;;;;;;;;;;;;21.22;53.62;100981.64;1754409;81;20192;-72
2022/08/10 00:45:10;;;;;;;;;;;;;;;21.20;53.80;100983.87;1757603;81;20488;-72
2022/08/10 00:47:37;;;;;;;;;;;;;;;21.21;53.92;100989.53;1757948;81;20341;-72
2022/08/10 00:50:05;;;;;;;;;;;;;;;21.21;54.08;100989.53;1758487;81;20182;-71
2022/08/10 00:52:32;;;;;;;;;;;;;;;21.22;54.25;100983.00;1754158;81;21051;-72
2022/08/10 00:54:58;;;;;;;;;;;;;;;21.25;54.39;100986.41;1758457;81;20217;-72
2022/08/10 00:57:25;;;;;;;;;;;;;;;21.26;54.52;100981.80;1757677;81;20484;-71
2022/08/10 00:59:52;;;;;;;;;;;;;;;21.27;54.58;100978.75;1730356;81;20207;-72
2022/08/10 01:02:18;;;;;;;;;;;;;;;21.27;54.51;100981.47;1753125;81;20138;-72
2022/08/10 01:04:45;;;;;;;;;;;;;;;21.28;54.54;100978.98;1757625;81;21097;-72
2022/08/10 01:07:21;;;;;;;;;;;;;;;21.28;54.49;100979.55;1758816;81;20437;-72
2022/08/10 01:10:18;;;;;;;;;;;;;;;21.29;54.39;100987.40;1757595;81;20213;-71
2022/08/10 01:12:48;;;;;;;;;;;;;;;21.30;54.26;100989.55;1753777;81;20173;-71
2022/08/10 01:15:28;;;;;;;;;;;;;;;21.29;54.46;100987.40;1758013;81;20173;-71
2022/08/10 01:18:07;;;;;;;;;;;;;;;21.27;54.57;100986.91;1757562;81;21172;-73
2022/08/10 01:20:40;;;;;;;;;;;;;;;21.29;54.64;100983.89;1757671;81;20378;-72
2022/08/10 01:23:26;;;;;;;;;;;;;;;21.30;54.61;100980.05;1758054;81;20151;-72
2022/08/10 01:26:17;;;;;;;;;;;;;;;21.28;54.44;100983.06;1739017;81;20186;-71
2022/08/10 01:29:03;;;;;;;;;;;;;;;21.27;54.48;100984.75;1758128;81;20492;-73
2022/08/10 01:31:33;;;;;;;;;;;;;;;21.20;54.42;100986.59;1731845;81;21270;-73
2022/08/10 01:34:04;;;;;;;;;;;;;;;21.18;54.42;100987.45;1755832;81;20233;-72
2022/08/10 01:36:34;;;;;;;;;;;;;;;21.17;54.31;100984.50;1755638;81;20169;-73
2022/08/10 01:39:02;;;;;;;;;;;;;;;21.16;54.34;100984.27;1759042;81;20178;-73
2022/08/10 01:41:32;;;;;;;;;;;;;;;21.15;54.42;100979.94;1756870;81;20204;-72
2022/08/10 01:44:06;;;;;;;;;;;;;;;21.13;54.41;100974.04;1756768;81;21134;-73
2022/08/10 01:46:32;;;;;;;;;;;;;;;21.10;54.55;100970.59;1754549;81;20243;-72
2022/08/10 01:48:59;;;;;;;;;;;;;;;21.10;54.69;100967.88;1754612;81;20224;-72
2022/08/10 01:51:43;;;;;;;;;;;;;;;21.10;54.64;100973.88;1758009;81;20209;-72
2022/08/10 01:54:11;;;;;;;;;;;;;;;21.07;54.69;100967.16;1758390;81;20134;-71
2022/08/10 01:56:41;;;;;;;;;;;;;;;21.04;54.72;100969.94;1756536;81;21205;-71
2022/08/10 01:59:15;;;;;;;;;;;;;;;21.01;54.70;100969.78;1742027;81;20201;-71
2022/08/10 02:01:46;;;;;;;;;;;;;;;20.98;54.87;100959.55;1731699;81;20440;-71
2022/08/10 02:04:14;;;;;;;;;;;;;;;20.95;55.06;100967.77;1756389;81;20209;-73
2022/08/10 02:06:46;;;;;;;;;;;;;;;20.93;55.27;100969.22;1753060;81;20209;-72
2022/08/10 02:09:15;;;;;;;;;;;;;;;20.89;55.45;100969.59;1753027;81;21146;-72
2022/08/10 02:11:43;;;;;;;;;;;;;;;20.86;55.57;100975.08;1757846;81;20500;-72
2022/08/10 02:14:12;;;;;;;;;;;;;;;20.83;55.63;100976.54;1728706;81;20165;-72
2022/08/10 02:16:41;;;;;;;;;;;;;;;20.80;55.64;100977.17;1748804;81;20196;-72
2022/08/10 02:19:08;;;;;;;;;;;;;;;20.78;55.70;100969.88;1758785;81;20184;-72
2022/08/10 02:21:34;;;;;;;;;;;;;;;20.75;55.87;100964.28;1757404;81;21127;-72
2022/08/10 02:24:00;;;;;;;;;;;;;;;20.73;55.99;100963.79;1753069;81;20472;-72
2022/08/10 02:26:26;;;;;;;;;;;;;;;20.72;56.06;100965.71;1753905;81;20181;-72
2022/08/10 02:28:53;;;;;;;;;;;;;;;20.67;56.18;100961.80;1757559;80;20154;-71
2022/08/10 02:31:20;;;;;;;;;;;;;;;20.66;56.40;100960.19;1753458;81;20796;-72
2022/08/10 02:33:47;;;;;;;;;;;;;;;20.61;56.40;100962.49;1757832;81;21213;-71
2022/08/10 02:36:13;;;;;;;;;;;;;;;20.60;56.40;100962.83;1756204;81;20130;-73
2022/08/10 02:38:45;;;;;;;;;;;;;;;20.57;56.50;100958.81;1754552;81;20384;-72
2022/08/10 02:41:14;;;;;;;;;;;;;;;20.57;56.63;100963.45;1756670;81;20460;-72
2022/08/10 02:43:46;;;;;;;;;;;;;;;20.56;56.67;100964.54;1753019;81;20476;-72
2022/08/10 02:46:15;;;;;;;;;;;;;;;20.58;56.75;100972.63;1750385;81;21165;-72
2022/08/10 02:48:46;;;;;;;;;;;;;;;20.59;56.73;100976.13;1738339;81;20261;-72
2022/08/10 02:51:18;;;;;;;;;;;;;;;20.59;56.76;100986.42;1758894;81;20178;-72
2022/08/10 02:53:49;;;;;;;;;;;;;;;20.61;56.70;100995.63;1756810;80;20139;-72
2022/08/10 02:56:27;;;;;;;;;;;;;;;20.63;56.66;100998.80;1757611;81;20205;-72
2022/08/10 02:59:00;;;;;;;;;;;;;;;20.64;56.58;100989.57;1754675;81;21250;-71
2022/08/10 03:01:33;;;;;;;;;;;;;;;20.65;56.66;100986.30;1757814;81;20470;-71
2022/08/10 03:04:05;;;;;;;;;;;;;;;20.66;56.67;100982.45;1759398;81;20229;-71
2022/08/10 03:06:40;;;;;;;;;;;;;;;20.65;56.58;100974.88;1754482;81;20416;-73
2022/08/10 03:09:09;;;;;;;;;;;;;;;20.68;56.56;100974.81;1756706;81;20460;-72
2022/08/10 03:11:36;;;;;;;;;;;;;;;20.67;56.41;100981.36;1758328;81;21131;-72
2022/08/10 03:14:02;;;;;;;;;;;;;;;20.66;56.47;100991.39;1757667;81;20181;-72
2022/08/10 03:16:29;;;;;;;;;;;;;;;20.71;56.44;100993.19;1757613;81;20228;-72
2022/08/10 03:18:56;;;;;;;;;;;;;;;20.72;56.50;100990.14;1757816;81;20225;-71
2022/08/10 03:21:22;;;;;;;;;;;;;;;20.71;56.45;100994.55;1755454;81;20209;-71
2022/08/10 03:23:49;;;;;;;;;;;;;;;20.64;56.65;100996.92;1751922;81;21144;-71
2022/08/10 03:26:16;;;;;;;;;;;;;;;20.64;56.75;100999.07;1758681;81;20164;-71
2022/08/10 03:28:43;;;;;;;;;;;;;;;20.63;56.75;100996.66;1755116;81;20433;-72
2022/08/10 03:31:09;;;;;;;;;;;;;;;20.63;56.91;100995.30;1759352;81;20210;-72
2022/08/10 03:33:37;;;;;;;;;;;;;;;20.66;56.94;100990.04;1735678;81;20204;-71
2022/08/10 03:36:05;;;;;;;;;;;;;;;20.66;56.90;100982.45;1751675;80;21063;-72
2022/08/10 03:38:33;;;;;;;;;;;;;;;20.68;56.87;100984.31;1758176;81;20138;-71
2022/08/10 03:41:04;;;;;;;;;;;;;;;20.70;56.91;100977.46;1757222;81;20195;-71
2022/08/10 03:43:30;;;;;;;;;;;;;;;20.70;56.96;100980.17;1757740;80;20181;-72
2022/08/10 03:45:58;;;;;;;;;;;;;;;20.70;57.00;100984.25;1750764;81;20143;-73
2022/08/10 03:48:26;;;;;;;;;;;;;;;20.71;56.94;100991.83;1755157;81;21136;-71
2022/08/10 03:50:53;;;;;;;;;;;;;;;20.72;57.05;101005.08;1756237;81;20185;-72
2022/08/10 03:53:19;;;;;;;;;;;;;;;20.73;57.21;101009.41;1754620;81;20217;-73
2022/08/10 03:55:46;;;;;;;;;;;;;;;20.75;57.25;101003.09;1755636;81;20158;-72
2022/08/10 03:58:13;;;;;;;;;;;;;;;20.77;57.29;100991.93;1755471;81;20139;-72
2022/08/10 04:00:40;;;;;;;;;;;;;;;20.77;57.19;100980.51;1749255;81;21130;-72
2022/08/10 04:03:06;;;;;;;;;;;;;;;20.75;57.11;100989.52;1744814;81;20232;-72
2022/08/10 04:05:33;;;;;;;;;;;;;;;20.77;57.02;101002.23;1730143;81;20186;-73
2022/08/10 04:08:00;;;;;;;;;;;;;;;20.75;56.83;100996.30;1758379;81;20146;-71
2022/08/10 04:10:27;;;;;;;;;;;;;;;20.76;56.89;100995.74;1753319;81;20138;-72
2022/08/10 04:12:53;;;;;;;;;;;;;;;20.76;56.88;100984.34;1756179;81;21568;-73
2022/08/10 04:15:20;;;;;;;;;;;;;;;20.76;56.85;100980.28;1758562;81;20130;-72
2022/08/10 04:17:46;;;;;;;;;;;;;;;20.77;56.71;100987.30;1756574;81;20177;-72
2022/08/10 04:20:16;;;;;;;;;;;;;;;20.77;56.71;100977.80;1759536;81;20162;-73
2022/08/10 04:22:44;;;;;;;;;;;;;;;20.79;56.67;100976.11;1741653;81;20210;-71
2022/08/10 04:25:10;;;;;;;;;;;;;;;20.82;56.61;100977.63;1757409;81;21152;-72
2022/08/10 04:27:37;;;;;;;;;;;;;;;20.85;56.61;100992.50;1757238;81;21195;-73
2022/08/10 04:30:05;;;;;;;;;;;;;;;20.89;56.68;101002.17;1754818;81;20185;-72
2022/08/10 04:32:32;;;;;;;;;;;;;;;20.92;56.49;100999.62;1757992;81;20146;-72
2022/08/10 04:34:58;;;;;;;;;;;;;;;20.97;56.46;101001.41;1754865;81;20142;-73
2022/08/10 04:37:24;;;;;;;;;;;;;;;20.82;56.86;101014.84;1729610;81;21252;-72
2022/08/10 04:39:51;;;;;;;;;;;;;;;20.79;56.88;101018.98;1756098;81;20182;-73
2022/08/10 04:42:17;;;;;;;;;;;;;;;20.83;56.88;101026.77;1757133;81;20142;-72
2022/08/10 04:44:43;;;;;;;;;;;;;;;20.88;56.86;101024.45;1755945;81;20461;-72
2022/08/10 04:47:10;;;;;;;;;;;;;;;20.93;56.60;101023.53;1734999;81;20662;-72
2022/08/10 04:49:36;;;;;;;;;;;;;;;20.95;56.40;101012.56;1756986;81;21132;-72
2022/08/10 04:52:04;;;;;;;;;;;;;;;21.01;56.38;100999.09;1756969;81;20214;-73
2022/08/10 04:54:30;;;;;;;;;;;;;;;21.20;56.39;101002.88;1753755;81;20182;-73
2022/08/10 04:56:57;;;;;;;;;;;;;;;21.41;55.83;101005.80;1738544;81;20181;-73
2022/08/10 04:59:23;;;;;;;;;;;;;;;21.32;55.83;101006.31;1757931;81;20198;-71
2022/08/10 05:01:49;;;;;;;;;;;;;;;21.35;55.81;101014.42;1757350;81;21141;-73
2022/08/10 05:04:16;;;;;;;;;;;;;;;21.39;55.59;101014.02;1757294;81;20172;-73
2022/08/10 05:06:43;;;;;;;;;;;;;;;21.43;55.48;101011.73;1760039;81;20134;-72
2022/08/10 05:09:09;;;;;;;;;;;;;;;21.43;55.16;101003.58;1759031;81;20583;-72
2022/08/10 05:11:36;;;;;;;;;;;;;;;21.44;55.13;101002.45;1755414;81;20259;-73
2022/08/10 05:14:02;;;;;;;;;;;;;;;21.42;55.09;100999.27;1758033;81;21835;-74
2022/08/10 05:16:28;;;;;;;;;;;;;;;21.40;55.18;100991.19;1757588;81;20138;-71
2022/08/10 05:18:55;;;;;;;;;;;;;;;21.35;55.30;100981.82;1734165;81;20195;-72
2022/08/10 05:21:21;;;;;;;;;;;;;;;21.33;55.50;100985.41;1753903;81;20621;-71
2022/08/10 05:23:47;;;;;;;;;;;;;;;21.31;55.75;100983.78;1756559;81;20176;-71
2022/08/10 05:26:13;;;;;;;;;;;;;;;21.34;55.75;100991.06;1755191;81;21139;-72
2022/08/10 05:28:40;;;;;;;;;;;;;;;21.31;55.73;100987.86;1758140;81;20539;-73
2022/08/10 05:31:06;;;;;;;;;;;;;;;21.30;55.83;100990.91;1758290;81;20208;-72
2022/08/10 05:33:32;;;;;;;;;;;;;;;21.29;55.81;100989.31;1759096;81;20170;-73
2022/08/10 05:35:59;;;;;;;;;;;;;;;21.26;55.96;100992.67;1732726;81;20469;-71
2022/08/10 05:38:27;;;;;;;;;;;;;;;21.23;55.80;100994.66;1758019;81;21119;-71
2022/08/10 05:40:53;;;;;;;;;;;;;;;21.20;55.87;100992.02;1753812;81;20201;-73
2022/08/10 05:43:20;;;;;;;;;;;;;;;21.19;56.14;100998.58;1758116;81;20181;-72
2022/08/10 05:45:47;;;;;;;;;;;;;;;21.24;56.34;101000.33;1758295;81;20142;-73
2022/08/10 05:48:13;;;;;;;;;;;;;;;21.25;56.09;101005.99;1758453;81;20146;-73
2022/08/10 05:50:40;;;;;;;;;;;;;;;21.27;56.30;101003.77;1757071;81;21764;-72
2022/08/10 05:53:06;;;;;;;;;;;;;;;21.28;56.45;101010.23;1757837;81;20230;-71
2022/08/10 05:55:33;;;;;;;;;;;;;;;21.32;56.42;101015.83;1754538;81;20163;-70
2022/08/10 05:57:59;;;;;;;;;;;;;;;21.35;56.41;101015.78;1758051;81;20552;-72
2022/08/10 06:00:26;;;;;;;;;;;;;;;21.41;56.53;101018.03;1754006;81;20508;-71
2022/08/10 06:02:58;;;;;;;;;;;;;;;21.47;56.56;101018.12;1748823;81;20789;-71
2022/08/10 06:05:25;;;;;;;;;;;;;;;21.52;56.70;101023.97;1738993;81;20170;-72
2022/08/10 06:07:54;;;;;;;;;;;;;;;21.51;56.85;101021.79;1745064;81;20453;-71
2022/08/10 06:10:21;;;;;;;;;;;;;;;21.54;56.74;101014.36;1754829;81;20130;-72
2022/08/10 06:14:59;;;;;;;;;;;;;;;21.62;56.68;101013.31;1750315;81;20185;-71
2022/08/10 06:15:16;;;;;;;;;;;;;;;21.71;56.42;101010.03;1729945;81;21321;-72
2022/08/10 06:17:42;;;;;;;;;;;;;;;21.77;56.31;101000.03;1757382;81;20210;-72
2022/08/10 06:20:10;;;;;;;;;;;;;;;21.90;56.12;101000.19;1729491;81;20158;-72
2022/08/10 06:22:36;;;;;;;;;;;;;;;22.01;55.95;101008.23;1757901;81;20272;-72
2022/08/10 06:25:04;;;;;;;;;;;;;;;22.15;55.76;101007.53;1758067;81;20217;-72
2022/08/10 06:27:30;;;;;;;;;;;;;;;22.27;55.61;100998.68;1757045;81;21175;-71
2022/08/10 06:29:58;;;;;;;;;;;;;;;22.38;54.75;100999.15;1758939;81;20297;-72
2022/08/10 06:32:27;;;;;;;;;;;;;;;22.43;54.17;101006.55;1749087;81;20182;-73
2022/08/10 06:34:55;;;;;;;;;;;;;;;22.48;54.25;101009.67;1753316;81;20656;-87
2022/08/10 06:37:24;;;;;;;;;;;;;;;22.55;54.11;101008.59;1757471;81;20217;-80
2022/08/10 06:39:50;;;;;;;;;;;;;;;22.64;53.96;101006.64;1761175;81;21642;-80
2022/08/10 06:42:23;;;;;;;;;;;;;;;22.70;53.37;100999.89;1758060;81;20181;-84
2022/08/10 06:45:01;;;;;;;;;;;;;;;22.72;53.00;101004.99;1756330;81;20424;-82
2022/08/10 06:47:40;;;;;;;;;;;;;;;22.75;53.08;101002.19;1753262;81;20189;-84
2022/08/10 06:50:10;;;;;;;;;;;;;;;22.79;52.68;101007.20;1767557;80;20139;-84
2022/08/10 06:52:37;;;;;;;;;;;;;;;22.82;52.72;101003.25;1748956;81;21876;-81
2022/08/10 06:55:03;;;;;;;;;;;;;;;22.85;52.41;101003.96;1752373;81;20274;-81
2022/08/10 06:57:30;;;;;;;;;;;;;;;22.81;52.44;100995.43;1749960;81;20124;-82
2022/08/10 06:59:56;;;;;;;;;;;;;;;22.83;52.23;100999.40;1732987;81;20143;-82
2022/08/10 07:02:29;;;;;;;;;;;;;;;22.84;51.95;101002.38;1726523;81;20193;-82
2022/08/10 07:04:59;;;;;;;;;;;;;;;22.84;51.90;101007.03;1752488;81;22310;-81
2022/08/10 07:07:27;;;;;;;;;;;;;;;22.89;52.00;101008.19;1754401;81;20438;-80
2022/08/10 07:09:54;;;;;;;;;;;;;;;22.90;51.92;101008.41;1756956;81;20165;-83
2022/08/10 07:12:24;;;;;;;;;;;;;;;22.93;51.97;101009.14;1758874;81;20174;-82
2022/08/10 07:14:52;;;;;;;;;;;;;;;22.97;51.82;101022.91;1725450;81;20526;-81
2022/08/10 07:17:20;;;;;;;;;;;;;;;22.98;51.97;101018.51;1753782;81;21127;-79
2022/08/10 07:19:48;;;;;;;;;;;;;;;23.04;51.75;101015.83;1754146;81;20176;-81
2022/08/10 07:22:16;;;;;;;;;;;;;;;23.10;51.53;101015.88;1758631;81;20485;-78
2022/08/10 07:24:42;;;;;;;;;;;;;;;23.12;51.75;101009.52;1751913;81;20176;-84
2022/08/10 07:27:09;;;;;;;;;;;;;;;23.18;51.65;101013.64;1756019;81;20206;-79
2022/08/10 07:29:38;;;;;;;;;;;;;;;23.23;51.70;101011.84;1754204;81;21507;-81
2022/08/10 07:32:06;;;;;;;;;;;;;;;23.23;51.50;101004.49;1755887;81;20227;-78
2022/08/10 07:34:35;;;;;;;;;;;;;;;23.27;51.79;101005.98;1755977;81;20154;-81
2022/08/10 07:37:05;;;;;;;;;;;;;;;23.33;51.50;101002.73;1758100;81;20869;-81
2022/08/10 07:39:37;;;;;;;;;;;;;;;23.37;51.50;101009.11;1750704;81;20191;-77
2022/08/10 07:42:06;;;;;;;;;;;;;;;23.41;51.56;101009.23;1755035;81;21876;-81
2022/08/10 07:44:33;;;;;;;;;;;;;;;23.51;51.86;101006.11;1750434;81;20124;-78
2022/08/10 07:47:03;;;;;;;;;;;;;;;23.61;51.78;101009.78;1760157;81;20170;-81
2022/08/10 07:49:34;;;;;;;;;;;;;;;23.71;51.39;101005.09;1766613;81;20230;-79
2022/08/10 07:52:01;;;;;;;;;;;;;;;23.72;51.37;101003.95;1764066;81;20282;-81
2022/08/10 07:54:28;;;;;;;;;;;;;;;23.73;51.09;101000.11;1758124;81;21477;-82
2022/08/10 07:56:58;;;;;;;;;;;;;;;23.72;51.21;100997.92;1757831;81;20185;-83
2022/08/10 07:59:31;;;;;;;;;;;;;;;23.73;51.24;100982.37;1760162;80;20185;-79
2022/08/10 08:01:57;;;;;;;;;;;;;;;23.68;50.31;100979.28;1757374;81;20163;-81
2022/08/10 08:04:26;;;;;;;;;;;;;;;23.62;50.53;100975.92;1755384;81;20158;-80
2022/08/10 08:06:53;;;;;;;;;;;;;;;23.61;50.78;100979.80;1738468;81;21985;-79
2022/08/10 08:09:20;;;;;;;;;;;;;;;23.64;50.91;100992.76;1736834;81;20127;-79
2022/08/10 08:11:49;;;;;;;;;;;;;;;23.68;51.05;100993.45;1637808;80;10000452;-84
2022/08/10 08:14:18;;;;;;;;;;;;;;;23.71;51.01;100994.97;1731557;82;20165;-84
2022/08/10 08:16:46;;;;;;;;;;;;;;;23.78;50.91;101005.34;1758837;81;21147;-82
2022/08/10 08:19:14;;;;;;;;;;;;;;;23.92;50.73;101003.11;1736610;81;20164;-81
2022/08/10 08:21:41;;;;;;;;;;;;;;;23.87;50.47;101015.04;1735390;81;20181;-83
2022/08/10 08:24:08;;;;;;;;;;;;;;;23.88;50.47;101005.71;1760733;81;20202;-80
2022/08/10 08:26:35;;;;;;;;;;;;;;;23.93;50.19;101004.72;1761509;80;20138;-82
2022/08/10 08:29:02;;;;;;;;;;;;;;;24.07;50.03;100998.38;1757536;81;21122;-85
2022/08/10 08:31:29;;;;;;;;;;;;;;;24.03;50.37;101002.93;1760561;81;20673;-83
2022/08/10 08:33:57;;;;;;;;;;;;;;;24.03;50.12;101000.20;1760067;81;20131;-82
2022/08/10 08:36:24;;;;;;;;;;;;;;;24.01;50.25;101000.30;1758481;81;20147;-83
2022/08/10 08:38:50;;;;;;;;;;;;;;;23.96;50.55;100998.59;1760250;81;20252;-80
2022/08/10 08:41:51;;;;;;;;;;;;;;;23.96;50.50;101001.32;1759841;81;21143;-82
2022/08/10 08:44:33;;;;;;;;;;;;;;;23.98;50.68;101012.67;1759971;81;20165;-82
2022/08/10 08:47:06;;;;;;;;;;;;;;;24.00;50.70;101009.63;1761444;81;20321;-81
2022/08/10 08:49:47;;;;;;;;;;;;;;;24.03;50.89;101005.66;1761053;81;20762;-83
2022/08/10 08:52:35;;;;;;;;;;;;;;;24.06;50.93;100996.80;1746520;81;20122;-80
2022/08/10 08:55:10;;;;;;;;;;;;;;;24.08;51.10;100998.60;1750165;81;20170;-83
2022/08/10 08:57:52;;;;;;;;;;;;;;;24.15;51.18;100993.16;1760279;81;20201;-82
2022/08/10 09:00:29;;;;;;;;;;;;;;;24.23;51.24;100994.44;1759793;81;20178;-79
2022/08/10 09:03:22;;;;;;;;;;;;;;;24.36;51.40;101006.75;1760612;81;20424;-80
2022/08/10 09:06:10;;;;;;;;;;;;;;;24.49;51.34;101007.81;1760507;81;20182;-80
2022/08/10 09:08:57;;;;;;;;;;;;;;;24.61;50.99;101009.74;1759915;81;21641;-83
2022/08/10 09:11:39;;;;;;;;;;;;;;;24.69;50.58;101004.75;1755943;81;20639;-86
2022/08/10 09:14:10;;;;;;;;;;;;;;;24.77;50.33;101001.66;1756896;81;20190;-84
2022/08/10 09:16:43;;;;;;;;;;;;;;;24.80;50.45;100996.89;1756088;81;20148;-82
2022/08/10 09:19:26;;;;;;;;;;;;;;;24.83;50.59;100994.83;1760028;81;20184;-79
2022/08/10 09:22:14;;;;;;;;;;;;;;;24.86;50.58;100995.52;1760251;81;21791;-85
2022/08/10 09:24:47;;;;;;;;;;;;;;;24.85;50.22;100999.40;1760361;81;20220;-85
2022/08/10 09:27:19;;;;;;;;;;;;;;;24.82;50.04;101000.08;1741612;81;20487;-84
2022/08/10 09:29:52;;;;;;;;;;;;;;;24.81;50.20;101001.23;1748806;81;20512;-82
2022/08/10 09:32:29;;;;;;;;;;;;;;;24.83;50.60;100998.94;1760949;81;20512;-84
2022/08/10 09:35:08;;;;;;;;;;;;;;;24.85;50.87;101004.86;1753569;81;21240;-82
2022/08/10 09:38:01;;;;;;;;;;;;;;;24.86;50.54;100999.61;1761045;81;20170;-81
2022/08/10 09:40:37;;;;;;;;;;;;;;;24.83;50.84;100998.94;1761883;81;20210;-86
2022/08/10 09:43:27;;;;;;;;;;;;;;;24.83;50.84;100999.51;1750812;81;20165;-85
2022/08/10 09:46:29;;;;;;;;;;;;;;;24.86;50.88;100995.52;1735581;81;20444;-86
2022/08/10 09:49:25;;;;;;;;;;;;;;;24.85;50.64;101003.50;1731080;82;21144;-83
2022/08/10 09:52:08;;;;;;;;;;;;;;;24.84;50.59;100994.27;1729954;82;20239;-81
2022/08/10 09:54:56;;;;;;;;;;;;;;;24.82;50.69;101000.66;1738395;81;20143;-82
2022/08/10 09:57:55;;;;;;;;;;;;;;;24.84;50.59;101001.88;1701473;81;20150;-82
2022/08/10 10:00:24;;;;;;;;;;;;;;;24.87;50.49;100997.09;1745481;81;20168;-78
2022/08/10 10:03:07;;;;;;;;;;;;;;;24.89;50.40;100997.56;1735302;81;20719;-82
2022/08/10 10:06:11;;;;;;;;;;;;;;;24.92;50.54;100993.36;1761217;81;20158;-80
2022/08/10 10:09:00;;;;;;;;;;;;;;;24.99;50.55;100991.62;1761153;81;20145;-80
2022/08/10 10:11:42;;;;;;;;;;;;;;;25.06;50.63;100988.89;1759667;81;20190;-77
2022/08/10 10:14:15;;;;;;;;;;;;;;;25.17;50.48;100990.84;1756984;81;20483;-83
2022/08/10 10:16:59;;;;;;;;;;;;;;;25.27;49.80;100984.07;1755689;81;21179;-86
2022/08/10 10:19:51;;;;;;;;;;;;;;;25.31;49.34;100986.94;1759216;81;20143;-83
2022/08/10 10:22:36;;;;;;;;;;;;;;;25.27;49.26;100979.97;1756912;81;20181;-83
2022/08/10 10:25:23;;;;;;;;;;;;;;;25.22;49.25;100985.13;1759316;81;20662;-84
2022/08/10 10:27:59;;;;;;;;;;;;;;;25.18;49.50;100984.23;1759908;81;20178;-85
2022/08/10 10:30:27;;;;;;;;;;;;;;;25.24;50.05;100983.42;1728225;81;21378;-84
2022/08/10 10:33:03;;;;;;;;;;;;;;;25.38;49.68;100978.36;1741348;81;20138;-86
2022/08/10 10:35:36;;;;;;;;;;;;;;;25.56;49.29;100977.48;1758386;81;20222;-80
2022/08/10 10:38:05;;;;;;;;;;;;;;;25.69;49.30;100973.55;1757623;81;20148;-82
2022/08/10 10:40:45;;;;;;;;;;;;;;;25.81;48.98;100972.73;1750843;81;20215;-85
2022/08/10 10:43:27;;;;;;;;;;;;;;;25.89;48.94;100974.50;1754064;81;20754;-82
2022/08/10 10:46:17;;;;;;;;;;;;;;;25.90;48.25;100967.90;1758300;81;20165;-80
2022/08/10 10:49:07;;;;;;;;;;;;;;;25.98;48.49;100962.61;1758450;81;20201;-83
2022/08/10 10:51:52;;;;;;;;;;;;;;;26.05;48.25;100958.09;1750053;80;20191;-84
2022/08/10 10:54:29;;;;;;;;;;;;;;;26.05;47.88;100944.41;1750552;81;20201;-85
2022/08/10 10:56:59;;;;;;;;;;;;;;;26.06;47.68;100959.71;1778806;80;21234;-83
2022/08/10 10:59:44;;;;;;;;;;;;;;;26.08;47.70;100957.40;1753538;81;20611;-84
2022/08/10 11:02:15;;;;;;;;;;;;;;;26.14;47.69;100953.83;1749262;81;20184;-86
2022/08/10 11:04:53;;;;;;;;;;;;;;;26.14;47.70;100945.62;1733785;81;20149;-83
2022/08/10 11:07:39;;;;;;;;;;;;;;;26.16;47.68;100950.17;1737845;81;20122;-83
2022/08/10 11:10:11;;;;;;;;;;;;;;;26.30;47.51;100944.25;1749819;81;21112;-81
2022/08/10 11:12:44;;;;;;;;;;;;;;;26.40;47.10;100939.02;1741001;81;20209;-82
2022/08/10 11:15:34;;;;;;;;;;;;;;;26.41;46.68;100952.92;1757687;81;20237;-87
2022/08/10 11:18:34;;;;;;;;;;;;;;;26.25;47.59;100952.72;1758557;81;20851;-82
2022/08/10 11:21:13;;;;;;;;;;;;;;;26.22;47.36;100951.48;1758178;81;20567;-82
2022/08/10 11:24:03;;;;;;;;;;;;;;;26.19;47.93;100959.02;1749751;81;22585;-82
2022/08/10 11:26:34;;;;;;;;;;;;;;;26.26;48.00;100957.86;1756458;81;20515;-83
2022/08/10 11:29:04;;;;;;;;;;;;;;;26.26;47.05;100950.19;1760824;81;20179;-81
2022/08/10 11:31:34;;;;;;;;;;;;;;;26.15;47.20;100942.52;1759706;81;20197;-82
2022/08/10 11:34:27;;;;;;;;;;;;;;;26.09;47.71;100941.77;1757594;81;20197;-83
2022/08/10 11:37:17;;;;;;;;;;;;;;;26.01;47.23;100939.43;1760151;81;21107;-81
2022/08/10 11:40:07;;;;;;;;;;;;;;;25.96;47.44;100937.76;1760040;81;20206;-83
2022/08/10 11:42:42;;;;;;;;;;;;;;;25.93;47.61;100934.36;1753009;81;20189;-81
2022/08/10 11:45:30;;;;;;;;;;;;;;;25.91;47.01;100929.01;1758911;81;20300;-82
2022/08/10 11:48:00;;;;;;;;;;;;;;;25.86;47.21;100932.78;1757664;81;20157;-82
2022/08/10 11:50:33;;;;;;;;;;;;;;;25.77;47.44;100931.35;1741038;81;22026;-79
2022/08/10 11:53:18;;;;;;;;;;;;;;;25.78;47.38;100933.72;1742815;81;20232;-72
2022/08/10 11:55:48;;;;;;;;;;;;;;;25.83;47.25;100923.93;1756290;81;20138;-72
2022/08/10 12:01:03;;;;;;;;;;;;;;;25.85;46.83;100934.52;1756489;81;20590;-73
2022/08/10 12:03:34;;;;;;;;;;;;;;;25.88;47.17;100931.08;1758539;81;21901;-72
2022/08/10 12:06:01;;;;;;;;;;;;;;;25.92;46.76;100935.48;1758395;81;20195;-72
2022/08/10 12:08:28;;;;;;;;;;;;;;;26.03;46.86;100936.33;1756469;80;20138;-72
2022/08/10 12:10:55;;;;;;;;;;;;;;;26.17;46.98;100930.64;1754495;81;20233;-72
2022/08/10 12:13:31;;;;;;;;;;;;;;;26.37;46.43;100923.30;1754660;81;20577;-72
2022/08/10 12:16:09;;;;;;;;;;;;;;;26.51;45.30;100927.55;1750367;81;21095;-74
2022/08/10 12:18:48;;;;;;;;;;;;;;;26.60;45.06;100926.78;1756785;81;20151;-74
2022/08/10 12:21:29;;;;;;;;;;;;;;;26.69;45.07;100932.05;1741358;81;20260;-73
2022/08/10 12:24:12;;;;;;;;;;;;;;;26.77;44.47;100933.23;1748244;80;20429;-73
2022/08/10 12:26:46;;;;;;;;;;;;;;;26.77;44.61;100925.02;1758105;81;20215;-72
2022/08/10 12:29:16;;;;;;;;;;;;;;;26.64;44.95;100927.08;1758209;81;20685;-73
2022/08/10 12:31:49;;;;;;;;;;;;;;;26.58;44.87;100931.81;1756918;81;20139;-71
2022/08/10 12:34:19;;;;;;;;;;;;;;;26.46;45.15;100934.08;1758079;81;20197;-72
2022/08/10 12:36:54;;;;;;;;;;;;;;;26.40;45.70;100934.12;1758110;81;20242;-72
2022/08/10 12:39:26;;;;;;;;;;;;;;;26.36;46.37;100931.30;1743775;81;20698;-74
2022/08/10 12:42:00;;;;;;;;;;;;;;;26.40;46.38;100934.91;1758891;81;21279;-73
2022/08/10 12:44:33;;;;;;;;;;;;;;;26.42;45.41;100926.33;1758708;81;20151;-73
2022/08/10 12:47:02;;;;;;;;;;;;;;;26.33;46.09;100926.53;1757466;81;20252;-74
2022/08/10 12:49:48;;;;;;;;;;;;;;;26.27;45.96;100920.31;1760648;81;20135;-72
2022/08/10 12:52:20;;;;;;;;;;;;;;;26.24;46.12;100919.07;1760175;81;20151;-75
2022/08/10 12:54:46;;;;;;;;;;;;;;;26.32;46.28;100920.81;1761103;81;21122;-74
2022/08/10 12:57:16;;;;;;;;;;;;;;;26.40;46.52;100923.96;1760489;81;21076;-73
2022/08/10 12:59:45;;;;;;;;;;;;;;;26.45;45.45;100921.52;1759138;81;20174;-72
2022/08/10 13:02:15;;;;;;;;;;;;;;;26.42;44.97;100924.95;1760835;81;20501;-73